sensor_id;sensor_type;location;lat;lon;timestamp;temperature;humidity
62339;DHT22;48368;53.406;6.214;2023-02-15T00:01:39;1.80;99.90
62339;DHT22;48368;53.406;6.214;2023-02-15T00:04:05;1.80;99.90
62339;DHT22;48368;53.406;6.214;2023-02-15T00:06:31;1.80;99.90
62339;DHT22;48368;53.406;6.214;2023-02-15T00:08:57;1.80;99.90
62339;DHT22;48368;53.406;6.214;2023-02-15T00:11:26;1.70;99.90
62339;DHT22;48368;53.406;6.214;2023-02-15T00:16:43;1.70;99.90
62339;DHT22;48368;53.406;6.214;2023-02-15T00:19:10;1.80;99.90
62339;DHT22;48368;53.406;6.214;2023-02-15T00:21:37;1.80;99.90
62339;DHT22;48368;53.406;6.214;2023-02-15T00:24:05;1.90;99.90
62339;DHT22;48368;53.406;6.214;2023-02-15T00:26:31;1.80;99.90
62339;DHT22;48368;53.406;6.214;2023-02-15T00:28:58;1.90;99.90
62339;DHT22;48368;53.406;6.214;2023-02-15T00:31:28;1.90;99.90
62339;DHT22;48368;53.406;6.214;2023-02-15T00:34:00;1.90;99.90
62339;DHT22;48368;53.406;6.214;2023-02-15T00:36:26;1.80;99.90
62339;DHT22;48368;53.406;6.214;2023-02-15T00:38:52;1.90;99.90
62339;DHT22;48368;53.406;6.214;2023-02-15T00:41:17;1.90;99.90
62339;DHT22;48368;53.406;6.214;2023-02-15T00:43:43;1.80;99.90
62339;DHT22;48368;53.406;6.214;2023-02-15T00:46:09;1.90;99.90
62339;DHT22;48368;53.406;6.214;2023-02-15T00:48:34;2.00;99.90
62339;DHT22;48368;53.406;6.214;2023-02-15T00:51:00;1.80;99.90
62339;DHT22;48368;53.406;6.214;2023-02-15T00:53:27;1.70;99.90
62339;DHT22;48368;53.406;6.214;2023-02-15T00:55:53;1.70;99.90
62339;DHT22;48368;53.406;6.214;2023-02-15T00:58:22;1.70;99.90
62339;DHT22;48368;53.406;6.214;2023-02-15T01:00:47;1.70;99.90
62339;DHT22;48368;53.406;6.214;2023-02-15T01:03:14;1.70;99.90
62339;DHT22;48368;53.406;6.214;2023-02-15T01:05:40;1.70;99.90
62339;DHT22;48368;53.406;6.214;2023-02-15T01:08:06;1.70;99.90
62339;DHT22;48368;53.406;6.214;2023-02-15T01:10:34;1.50;99.90
62339;DHT22;48368;53.406;6.214;2023-02-15T01:13:00;1.60;99.90
62339;DHT22;48368;53.406;6.214;2023-02-15T01:15:26;1.40;99.90
62339;DHT22;48368;53.406;6.214;2023-02-15T01:17:52;1.50;99.90
62339;DHT22;48368;53.406;6.214;2023-02-15T01:20:20;1.50;99.90
62339;DHT22;48368;53.406;6.214;2023-02-15T01:22:46;1.30;99.90
62339;DHT22;48368;53.406;6.214;2023-02-15T01:25:18;1.50;99.90
62339;DHT22;48368;53.406;6.214;2023-02-15T01:27:45;1.40;99.90
62339;DHT22;48368;53.406;6.214;2023-02-15T01:30:11;1.40;99.90
62339;DHT22;48368;53.406;6.214;2023-02-15T01:32:37;1.30;99.90
62339;DHT22;48368;53.406;6.214;2023-02-15T01:35:03;1.20;99.90
62339;DHT22;48368;53.406;6.214;2023-02-15T01:37:33;1.40;99.90
62339;DHT22;48368;53.406;6.214;2023-02-15T01:39:59;1.30;99.90
62339;DHT22;48368;53.406;6.214;2023-02-15T01:42:27;1.20;99.90
62339;DHT22;48368;53.406;6.214;2023-02-15T01:50:06;1.00;99.90
62339;DHT22;48368;53.406;6.214;2023-02-15T01:52:37;1.00;99.90
62339;DHT22;48368;53.406;6.214;2023-02-15T01:55:04;1.00;99.90
62339;DHT22;48368;53.406;6.214;2023-02-15T01:57:30;0.90;99.90
62339;DHT22;48368;53.406;6.214;2023-02-15T01:59:59;0.90;99.90
62339;DHT22;48368;53.406;6.214;2023-02-15T02:02:27;0.80;99.90
62339;DHT22;48368;53.406;6.214;2023-02-15T02:05:03;1.00;99.90
62339;DHT22;48368;53.406;6.214;2023-02-15T02:07:39;1.00;99.90
62339;DHT22;48368;53.406;6.214;2023-02-15T02:10:08;0.90;99.90
62339;DHT22;48368;53.406;6.214;2023-02-15T02:12:35;0.70;99.90
62339;DHT22;48368;53.406;6.214;2023-02-15T02:15:02;0.70;99.90
62339;DHT22;48368;53.406;6.214;2023-02-15T02:21:00;0.70;99.90
62339;DHT22;48368;53.406;6.214;2023-02-15T02:23:27;0.60;99.90
62339;DHT22;48368;53.406;6.214;2023-02-15T02:29:11;0.60;99.90
62339;DHT22;48368;53.406;6.214;2023-02-15T02:34:29;0.70;99.90
62339;DHT22;48368;53.406;6.214;2023-02-15T02:37:24;0.60;99.90
62339;DHT22;48368;53.406;6.214;2023-02-15T02:40:25;0.60;99.90
62339;DHT22;48368;53.406;6.214;2023-02-15T02:43:00;0.70;99.90
62339;DHT22;48368;53.406;6.214;2023-02-15T02:45:43;0.50;99.90
62339;DHT22;48368;53.406;6.214;2023-02-15T02:48:18;0.70;99.90
62339;DHT22;48368;53.406;6.214;2023-02-15T02:50:45;0.50;99.90
62339;DHT22;48368;53.406;6.214;2023-02-15T02:53:10;0.60;99.90
62339;DHT22;48368;53.406;6.214;2023-02-15T02:55:43;0.40;99.90
62339;DHT22;48368;53.406;6.214;2023-02-15T02:58:18;0.40;99.90
62339;DHT22;48368;53.406;6.214;2023-02-15T03:05:50;0.40;99.90
62339;DHT22;48368;53.406;6.214;2023-02-15T03:08:20;0.50;99.90
62339;DHT22;48368;53.406;6.214;2023-02-15T03:10:53;0.30;99.90
62339;DHT22;48368;53.406;6.214;2023-02-15T03:13:22;0.40;99.90
62339;DHT22;48368;53.406;6.214;2023-02-15T03:15:49;0.30;99.90
62339;DHT22;48368;53.406;6.214;2023-02-15T03:18:38;0.40;99.90
62339;DHT22;48368;53.406;6.214;2023-02-15T03:21:05;0.30;99.90
62339;DHT22;48368;53.406;6.214;2023-02-15T03:23:33;0.40;99.90
62339;DHT22;48368;53.406;6.214;2023-02-15T03:26:02;0.30;99.90
62339;DHT22;48368;53.406;6.214;2023-02-15T03:28:33;0.20;99.90
62339;DHT22;48368;53.406;6.214;2023-02-15T03:31:03;0.20;99.90
62339;DHT22;48368;53.406;6.214;2023-02-15T03:33:29;0.20;99.90
62339;DHT22;48368;53.406;6.214;2023-02-15T03:36:04;0.30;99.90
62339;DHT22;48368;53.406;6.214;2023-02-15T03:38:44;0.20;99.90
62339;DHT22;48368;53.406;6.214;2023-02-15T03:41:14;0.30;99.90
62339;DHT22;48368;53.406;6.214;2023-02-15T03:43:52;0.30;99.90
62339;DHT22;48368;53.406;6.214;2023-02-15T03:48:58;0.20;99.90
62339;DHT22;48368;53.406;6.214;2023-02-15T03:51:29;0.20;99.90
62339;DHT22;48368;53.406;6.214;2023-02-15T03:54:10;0.20;99.90
62339;DHT22;48368;53.406;6.214;2023-02-15T03:56:39;0.10;99.90
62339;DHT22;48368;53.406;6.214;2023-02-15T03:59:06;0.20;99.90
62339;DHT22;48368;53.406;6.214;2023-02-15T04:02:03;0.00;99.90
62339;DHT22;48368;53.406;6.214;2023-02-15T04:04:37;0.00;99.90
62339;DHT22;48368;53.406;6.214;2023-02-15T04:07:05;0.20;99.90
62339;DHT22;48368;53.406;6.214;2023-02-15T04:09:31;0.20;99.90
62339;DHT22;48368;53.406;6.214;2023-02-15T04:12:15;0.20;99.90
62339;DHT22;48368;53.406;6.214;2023-02-15T04:14:40;0.10;99.90
62339;DHT22;48368;53.406;6.214;2023-02-15T04:17:25;0.20;99.90
62339;DHT22;48368;53.406;6.214;2023-02-15T04:19:50;0.10;99.90
62339;DHT22;48368;53.406;6.214;2023-02-15T04:22:34;0.30;99.90
62339;DHT22;48368;53.406;6.214;2023-02-15T04:25:19;0.10;99.90
62339;DHT22;48368;53.406;6.214;2023-02-15T04:27:54;0.10;99.90
62339;DHT22;48368;53.406;6.214;2023-02-15T04:30:23;0.20;99.90
62339;DHT22;48368;53.406;6.214;2023-02-15T04:32:49;0.10;99.90
62339;DHT22;48368;53.406;6.214;2023-02-15T04:35:15;0.10;99.90
62339;DHT22;48368;53.406;6.214;2023-02-15T04:37:41;0.20;99.90
62339;DHT22;48368;53.406;6.214;2023-02-15T04:40:09;0.20;99.90
62339;DHT22;48368;53.406;6.214;2023-02-15T04:42:35;0.10;99.90
62339;DHT22;48368;53.406;6.214;2023-02-15T04:45:01;0.10;99.90
62339;DHT22;48368;53.406;6.214;2023-02-15T04:47:27;0.30;99.90
62339;DHT22;48368;53.406;6.214;2023-02-15T04:49:53;0.30;99.90
62339;DHT22;48368;53.406;6.214;2023-02-15T04:52:18;0.10;99.90
62339;DHT22;48368;53.406;6.214;2023-02-15T04:54:44;0.10;99.90
62339;DHT22;48368;53.406;6.214;2023-02-15T04:57:10;0.30;99.90
62339;DHT22;48368;53.406;6.214;2023-02-15T04:59:36;0.10;99.90
62339;DHT22;48368;53.406;6.214;2023-02-15T05:02:02;0.10;99.90
62339;DHT22;48368;53.406;6.214;2023-02-15T05:04:28;0.30;99.90
62339;DHT22;48368;53.406;6.214;2023-02-15T05:06:53;0.20;99.90
62339;DHT22;48368;53.406;6.214;2023-02-15T05:09:19;0.20;99.90
62339;DHT22;48368;53.406;6.214;2023-02-15T05:11:45;0.30;99.90
62339;DHT22;48368;53.406;6.214;2023-02-15T05:14:10;0.20;99.90
62339;DHT22;48368;53.406;6.214;2023-02-15T05:16:36;0.10;99.90
62339;DHT22;48368;53.406;6.214;2023-02-15T05:19:02;0.30;99.90
62339;DHT22;48368;53.406;6.214;2023-02-15T05:21:28;0.10;99.90
62339;DHT22;48368;53.406;6.214;2023-02-15T05:23:54;0.10;99.90
62339;DHT22;48368;53.406;6.214;2023-02-15T05:26:22;0.20;99.90
62339;DHT22;48368;53.406;6.214;2023-02-15T05:29:06;0.20;99.90
62339;DHT22;48368;53.406;6.214;2023-02-15T05:31:33;0.00;99.90
62339;DHT22;48368;53.406;6.214;2023-02-15T05:33:59;0.00;99.90
62339;DHT22;48368;53.406;6.214;2023-02-15T05:36:24;0.10;99.90
62339;DHT22;48368;53.406;6.214;2023-02-15T05:38:50;0.20;99.90
62339;DHT22;48368;53.406;6.214;2023-02-15T05:41:16;0.10;99.90
62339;DHT22;48368;53.406;6.214;2023-02-15T05:43:41;0.10;99.90
62339;DHT22;48368;53.406;6.214;2023-02-15T05:46:07;0.00;99.90
62339;DHT22;48368;53.406;6.214;2023-02-15T05:48:34;0.10;99.90
62339;DHT22;48368;53.406;6.214;2023-02-15T05:51:11;0.10;99.90
62339;DHT22;48368;53.406;6.214;2023-02-15T05:53:41;0.00;99.90
62339;DHT22;48368;53.406;6.214;2023-02-15T05:56:11;0.10;99.90
62339;DHT22;48368;53.406;6.214;2023-02-15T05:58:41;0.00;99.90
62339;DHT22;48368;53.406;6.214;2023-02-15T06:01:18;-0.10;99.90
62339;DHT22;48368;53.406;6.214;2023-02-15T06:03:44;0.00;99.90
62339;DHT22;48368;53.406;6.214;2023-02-15T06:06:10;-0.10;99.90
62339;DHT22;48368;53.406;6.214;2023-02-15T06:08:37;0.00;99.90
62339;DHT22;48368;53.406;6.214;2023-02-15T06:11:03;-0.10;99.90
62339;DHT22;48368;53.406;6.214;2023-02-15T06:13:29;0.00;99.90
62339;DHT22;48368;53.406;6.214;2023-02-15T06:15:55;0.10;99.90
62339;DHT22;48368;53.406;6.214;2023-02-15T06:18:21;-0.10;99.90
62339;DHT22;48368;53.406;6.214;2023-02-15T06:20:47;0.00;99.90
62339;DHT22;48368;53.406;6.214;2023-02-15T06:23:13;-0.10;99.90
62339;DHT22;48368;53.406;6.214;2023-02-15T06:25:39;0.10;99.90
62339;DHT22;48368;53.406;6.214;2023-02-15T06:28:05;0.10;99.90
62339;DHT22;48368;53.406;6.214;2023-02-15T06:30:31;0.10;99.90
62339;DHT22;48368;53.406;6.214;2023-02-15T06:32:56;0.20;99.90
62339;DHT22;48368;53.406;6.214;2023-02-15T06:35:22;0.10;99.90
62339;DHT22;48368;53.406;6.214;2023-02-15T06:37:48;0.10;99.90
62339;DHT22;48368;53.406;6.214;2023-02-15T06:40:14;0.30;99.90
62339;DHT22;48368;53.406;6.214;2023-02-15T06:42:41;0.40;99.90
62339;DHT22;48368;53.406;6.214;2023-02-15T06:45:07;0.40;99.90
62339;DHT22;48368;53.406;6.214;2023-02-15T06:47:33;0.40;99.90
62339;DHT22;48368;53.406;6.214;2023-02-15T06:49:59;0.50;99.90
62339;DHT22;48368;53.406;6.214;2023-02-15T06:52:24;0.40;99.90
62339;DHT22;48368;53.406;6.214;2023-02-15T06:54:50;0.50;99.90
62339;DHT22;48368;53.406;6.214;2023-02-15T06:57:16;0.60;99.90
62339;DHT22;48368;53.406;6.214;2023-02-15T06:59:41;0.50;99.90
62339;DHT22;48368;53.406;6.214;2023-02-15T07:02:09;0.70;99.90
62339;DHT22;48368;53.406;6.214;2023-02-15T07:04:36;0.60;99.90
62339;DHT22;48368;53.406;6.214;2023-02-15T07:07:02;0.70;99.90
62339;DHT22;48368;53.406;6.214;2023-02-15T07:09:27;0.70;99.90
62339;DHT22;48368;53.406;6.214;2023-02-15T07:11:53;0.90;99.90
62339;DHT22;48368;53.406;6.214;2023-02-15T07:27:35;0.90;99.90
62339;DHT22;48368;53.406;6.214;2023-02-15T07:30:00;1.10;99.90
62339;DHT22;48368;53.406;6.214;2023-02-15T07:32:30;1.00;99.90
62339;DHT22;48368;53.406;6.214;2023-02-15T07:34:56;1.00;99.90
62339;DHT22;48368;53.406;6.214;2023-02-15T07:37:22;1.20;99.90
62339;DHT22;48368;53.406;6.214;2023-02-15T07:39:48;1.10;99.90
62339;DHT22;48368;53.406;6.214;2023-02-15T07:42:14;1.20;99.90
62339;DHT22;48368;53.406;6.214;2023-02-15T07:44:39;1.20;99.90
62339;DHT22;48368;53.406;6.214;2023-02-15T07:47:05;1.20;99.90
62339;DHT22;48368;53.406;6.214;2023-02-15T07:49:31;1.40;99.90
62339;DHT22;48368;53.406;6.214;2023-02-15T07:51:57;1.30;99.90
62339;DHT22;48368;53.406;6.214;2023-02-15T07:54:23;1.30;99.90
62339;DHT22;48368;53.406;6.214;2023-02-15T07:56:54;1.30;99.90
62339;DHT22;48368;53.406;6.214;2023-02-15T07:59:28;1.40;99.90
62339;DHT22;48368;53.406;6.214;2023-02-15T08:01:54;1.50;99.90
62339;DHT22;48368;53.406;6.214;2023-02-15T08:04:36;1.60;99.90
62339;DHT22;48368;53.406;6.214;2023-02-15T08:07:02;1.70;99.90
62339;DHT22;48368;53.406;6.214;2023-02-15T08:09:35;1.90;99.90
62339;DHT22;48368;53.406;6.214;2023-02-15T08:12:10;1.90;99.90
62339;DHT22;48368;53.406;6.214;2023-02-15T08:14:42;1.80;99.90
62339;DHT22;48368;53.406;6.214;2023-02-15T08:17:08;1.90;99.90
62339;DHT22;48368;53.406;6.214;2023-02-15T08:19:49;1.90;99.90
62339;DHT22;48368;53.406;6.214;2023-02-15T08:22:15;2.10;99.90
62339;DHT22;48368;53.406;6.214;2023-02-15T08:24:55;2.10;99.90
62339;DHT22;48368;53.406;6.214;2023-02-15T08:28:06;2.10;99.90
62339;DHT22;48368;53.406;6.214;2023-02-15T08:30:32;2.30;99.90
62339;DHT22;48368;53.406;6.214;2023-02-15T08:32:58;2.40;99.90
62339;DHT22;48368;53.406;6.214;2023-02-15T08:35:24;2.30;99.90
62339;DHT22;48368;53.406;6.214;2023-02-15T08:38:05;2.50;99.90
62339;DHT22;48368;53.406;6.214;2023-02-15T08:40:46;2.50;99.90
62339;DHT22;48368;53.406;6.214;2023-02-15T08:43:14;2.80;99.90
62339;DHT22;48368;53.406;6.214;2023-02-15T08:45:55;2.70;99.90
62339;DHT22;48368;53.406;6.214;2023-02-15T08:48:21;2.80;99.90
62339;DHT22;48368;53.406;6.214;2023-02-15T08:50:46;3.00;99.90
62339;DHT22;48368;53.406;6.214;2023-02-15T08:53:12;2.90;99.90
62339;DHT22;48368;53.406;6.214;2023-02-15T08:55:38;3.00;99.90
62339;DHT22;48368;53.406;6.214;2023-02-15T08:58:14;3.30;99.90
62339;DHT22;48368;53.406;6.214;2023-02-15T09:00:57;3.20;99.90
62339;DHT22;48368;53.406;6.214;2023-02-15T09:03:23;3.30;99.90
62339;DHT22;48368;53.406;6.214;2023-02-15T09:05:57;3.60;99.90
62339;DHT22;48368;53.406;6.214;2023-02-15T09:11:44;3.80;99.90
62339;DHT22;48368;53.406;6.214;2023-02-15T09:14:17;3.70;99.90
62339;DHT22;48368;53.406;6.214;2023-02-15T09:16:46;3.90;99.90
62339;DHT22;48368;53.406;6.214;2023-02-15T09:19:32;4.00;99.90
62339;DHT22;48368;53.406;6.214;2023-02-15T09:22:01;4.10;99.90
62339;DHT22;48368;53.406;6.214;2023-02-15T09:24:33;4.20;99.90
62339;DHT22;48368;53.406;6.214;2023-02-15T09:27:05;4.40;99.90
62339;DHT22;48368;53.406;6.214;2023-02-15T09:29:46;4.30;99.90
62339;DHT22;48368;53.406;6.214;2023-02-15T09:32:15;4.50;99.90
62339;DHT22;48368;53.406;6.214;2023-02-15T09:34:43;4.50;99.90
62339;DHT22;48368;53.406;6.214;2023-02-15T09:37:14;4.60;99.90
62339;DHT22;48368;53.406;6.214;2023-02-15T09:39:43;4.70;99.90
62339;DHT22;48368;53.406;6.214;2023-02-15T09:48:38;5.10;99.90
62339;DHT22;48368;53.406;6.214;2023-02-15T10:23:53;6.30;99.90
62339;DHT22;48368;53.406;6.214;2023-02-15T10:27:07;6.40;99.90
62339;DHT22;48368;53.406;6.214;2023-02-15T10:29:39;6.60;99.90
62339;DHT22;48368;53.406;6.214;2023-02-15T10:41:53;7.20;99.90
62339;DHT22;48368;53.406;6.214;2023-02-15T10:56:34;7.80;99.90
62339;DHT22;48368;53.406;6.214;2023-02-15T11:05:45;8.10;99.90
62339;DHT22;48368;53.406;6.214;2023-02-15T11:08:38;8.20;99.90
62339;DHT22;48368;53.406;6.214;2023-02-15T11:11:08;8.30;99.90
62339;DHT22;48368;53.406;6.214;2023-02-15T11:17:50;8.30;99.90
62339;DHT22;48368;53.406;6.214;2023-02-15T11:23:44;8.40;99.90
62339;DHT22;48368;53.406;6.214;2023-02-15T11:29:27;8.50;99.90
62339;DHT22;48368;53.406;6.214;2023-02-15T11:32:33;8.50;99.90
62339;DHT22;48368;53.406;6.214;2023-02-15T11:40:54;8.50;99.90
62339;DHT22;48368;53.406;6.214;2023-02-15T11:43:52;8.60;99.90
62339;DHT22;48368;53.406;6.214;2023-02-15T11:46:32;8.70;99.90
62339;DHT22;48368;53.406;6.214;2023-02-15T11:49:34;8.80;99.90
62339;DHT22;48368;53.406;6.214;2023-02-15T11:52:22;8.90;99.90
62339;DHT22;48368;53.406;6.214;2023-02-15T11:55:09;9.00;99.90
62339;DHT22;48368;53.406;6.214;2023-02-15T12:00:38;9.20;99.90
62339;DHT22;48368;53.406;6.214;2023-02-15T12:11:48;9.60;99.90
62339;DHT22;48368;53.406;6.214;2023-02-15T12:17:50;9.70;99.90
62339;DHT22;48368;53.406;6.214;2023-02-15T12:20:32;9.80;99.90
62339;DHT22;48368;53.406;6.214;2023-02-15T12:23:15;9.80;99.90
62339;DHT22;48368;53.406;6.214;2023-02-15T12:25:53;9.90;99.90
62339;DHT22;48368;53.406;6.214;2023-02-15T12:28:43;10.00;99.90
62339;DHT22;48368;53.406;6.214;2023-02-15T12:34:03;10.10;99.90
62339;DHT22;48368;53.406;6.214;2023-02-15T12:36:46;10.10;99.90
62339;DHT22;48368;53.406;6.214;2023-02-15T12:39:34;10.10;99.90
62339;DHT22;48368;53.406;6.214;2023-02-15T12:42:41;10.10;99.90
62339;DHT22;48368;53.406;6.214;2023-02-15T12:45:27;10.10;99.90
62339;DHT22;48368;53.406;6.214;2023-02-15T12:51:14;10.20;99.90
62339;DHT22;48368;53.406;6.214;2023-02-15T12:53:53;10.10;99.90
62339;DHT22;48368;53.406;6.214;2023-02-15T12:56:30;10.20;99.90
62339;DHT22;48368;53.406;6.214;2023-02-15T13:01:49;10.20;99.90
62339;DHT22;48368;53.406;6.214;2023-02-15T13:04:26;10.30;99.90
62339;DHT22;48368;53.406;6.214;2023-02-15T13:07:17;10.30;99.90
62339;DHT22;48368;53.406;6.214;2023-02-15T13:09:44;10.30;99.90
62339;DHT22;48368;53.406;6.214;2023-02-15T13:12:30;10.30;99.90
62339;DHT22;48368;53.406;6.214;2023-02-15T13:56:04;10.40;99.90
62339;DHT22;48368;53.406;6.214;2023-02-15T14:01:42;10.40;99.90
62339;DHT22;48368;53.406;6.214;2023-02-15T14:31:47;9.90;99.90
62339;DHT22;48368;53.406;6.214;2023-02-15T15:20:57;9.60;99.90
62339;DHT22;48368;53.406;6.214;2023-02-15T15:23:53;9.50;99.90
62339;DHT22;48368;53.406;6.214;2023-02-15T15:38:51;9.40;99.90
62339;DHT22;48368;53.406;6.214;2023-02-15T15:49:42;9.20;99.90
62339;DHT22;48368;53.406;6.214;2023-02-15T15:52:20;9.20;99.90
62339;DHT22;48368;53.406;6.214;2023-02-15T15:54:53;9.10;99.90
62339;DHT22;48368;53.406;6.214;2023-02-15T15:57:32;9.10;99.90
62339;DHT22;48368;53.406;6.214;2023-02-15T15:59:59;9.00;99.90
62339;DHT22;48368;53.406;6.214;2023-02-15T16:02:25;9.00;99.90
62339;DHT22;48368;53.406;6.214;2023-02-15T16:04:51;8.90;99.90
62339;DHT22;48368;53.406;6.214;2023-02-15T16:09:59;8.80;99.90
62339;DHT22;48368;53.406;6.214;2023-02-15T16:12:30;8.70;99.90
62339;DHT22;48368;53.406;6.214;2023-02-15T16:14:56;8.70;99.90
62339;DHT22;48368;53.406;6.214;2023-02-15T16:17:25;8.60;99.90
62339;DHT22;48368;53.406;6.214;2023-02-15T16:20:03;8.60;99.90
62339;DHT22;48368;53.406;6.214;2023-02-15T16:22:32;8.50;99.90
62339;DHT22;48368;53.406;6.214;2023-02-15T16:27:43;8.40;99.90
62339;DHT22;48368;53.406;6.214;2023-02-15T16:30:29;8.40;99.90
62339;DHT22;48368;53.406;6.214;2023-02-15T16:33:07;8.30;99.90
62339;DHT22;48368;53.406;6.214;2023-02-15T16:35:34;8.20;99.90
62339;DHT22;48368;53.406;6.214;2023-02-15T16:38:00;8.20;99.90
62339;DHT22;48368;53.406;6.214;2023-02-15T16:40:51;8.20;99.90
62339;DHT22;48368;53.406;6.214;2023-02-15T16:43:24;8.10;99.90
62339;DHT22;48368;53.406;6.214;2023-02-15T16:45:52;8.10;99.90
62339;DHT22;48368;53.406;6.214;2023-02-15T16:48:23;8.00;99.90
62339;DHT22;48368;53.406;6.214;2023-02-15T16:50:54;8.00;99.90
62339;DHT22;48368;53.406;6.214;2023-02-15T16:53:24;7.90;99.90
62339;DHT22;48368;53.406;6.214;2023-02-15T16:55:58;7.90;99.90
62339;DHT22;48368;53.406;6.214;2023-02-15T16:58:42;7.90;99.90
62339;DHT22;48368;53.406;6.214;2023-02-15T17:01:11;7.80;99.90
62339;DHT22;48368;53.406;6.214;2023-02-15T17:03:38;7.80;99.90
62339;DHT22;48368;53.406;6.214;2023-02-15T17:06:21;7.70;99.90
62339;DHT22;48368;53.406;6.214;2023-02-15T17:08:47;7.60;99.90
62339;DHT22;48368;53.406;6.214;2023-02-15T17:11:45;7.60;99.90
62339;DHT22;48368;53.406;6.214;2023-02-15T17:14:19;7.60;99.90
62339;DHT22;48368;53.406;6.214;2023-02-15T17:16:54;7.50;99.90
62339;DHT22;48368;53.406;6.214;2023-02-15T17:19:32;7.50;99.90
62339;DHT22;48368;53.406;6.214;2023-02-15T17:22:27;7.50;99.90
62339;DHT22;48368;53.406;6.214;2023-02-15T17:25:05;7.40;99.90
62339;DHT22;48368;53.406;6.214;2023-02-15T17:27:31;7.40;99.90
62339;DHT22;48368;53.406;6.214;2023-02-15T17:30:14;7.40;99.90
62339;DHT22;48368;53.406;6.214;2023-02-15T17:32:58;7.40;99.90
62339;DHT22;48368;53.406;6.214;2023-02-15T17:35:31;7.30;99.90
62339;DHT22;48368;53.406;6.214;2023-02-15T17:38:10;7.30;99.90
62339;DHT22;48368;53.406;6.214;2023-02-15T17:41:04;7.20;99.90
62339;DHT22;48368;53.406;6.214;2023-02-15T17:43:33;7.20;99.90
62339;DHT22;48368;53.406;6.214;2023-02-15T17:46:10;7.20;99.90
62339;DHT22;48368;53.406;6.214;2023-02-15T17:48:47;7.20;99.90
62339;DHT22;48368;53.406;6.214;2023-02-15T17:51:14;7.10;99.90
62339;DHT22;48368;53.406;6.214;2023-02-15T17:53:41;7.10;99.90
62339;DHT22;48368;53.406;6.214;2023-02-15T17:56:27;7.10;99.90
62339;DHT22;48368;53.406;6.214;2023-02-15T17:58:53;7.10;99.90
62339;DHT22;48368;53.406;6.214;2023-02-15T18:01:21;7.10;99.90
62339;DHT22;48368;53.406;6.214;2023-02-15T18:04:11;7.00;99.90
62339;DHT22;48368;53.406;6.214;2023-02-15T18:06:59;7.00;99.90
62339;DHT22;48368;53.406;6.214;2023-02-15T18:09:58;6.90;99.90
62339;DHT22;48368;53.406;6.214;2023-02-15T18:13:00;6.90;99.90
62339;DHT22;48368;53.406;6.214;2023-02-15T18:15:26;6.90;99.90
62339;DHT22;48368;53.406;6.214;2023-02-15T18:18:04;6.80;99.90
62339;DHT22;48368;53.406;6.214;2023-02-15T18:21:03;6.80;99.90
62339;DHT22;48368;53.406;6.214;2023-02-15T18:23:28;6.80;99.90
62339;DHT22;48368;53.406;6.214;2023-02-15T18:26:04;6.80;99.90
62339;DHT22;48368;53.406;6.214;2023-02-15T18:28:51;6.80;99.90
62339;DHT22;48368;53.406;6.214;2023-02-15T18:34:32;6.80;99.90
62339;DHT22;48368;53.406;6.214;2023-02-15T18:37:03;6.80;99.90
62339;DHT22;48368;53.406;6.214;2023-02-15T18:39:40;6.80;99.90
62339;DHT22;48368;53.406;6.214;2023-02-15T18:42:25;6.80;99.90
62339;DHT22;48368;53.406;6.214;2023-02-15T18:45:15;6.70;99.90
62339;DHT22;48368;53.406;6.214;2023-02-15T18:56:44;6.70;99.90
62339;DHT22;48368;53.406;6.214;2023-02-15T18:59:26;6.70;99.90
62339;DHT22;48368;53.406;6.214;2023-02-15T19:02:05;6.70;99.90
62339;DHT22;48368;53.406;6.214;2023-02-15T19:04:47;6.70;99.90
62339;DHT22;48368;53.406;6.214;2023-02-15T19:07:24;6.70;99.90
62339;DHT22;48368;53.406;6.214;2023-02-15T19:09:59;6.60;99.90
62339;DHT22;48368;53.406;6.214;2023-02-15T19:12:41;6.70;99.90
62339;DHT22;48368;53.406;6.214;2023-02-15T19:15:25;6.60;99.90
62339;DHT22;48368;53.406;6.214;2023-02-15T19:18:25;6.60;99.90
62339;DHT22;48368;53.406;6.214;2023-02-15T19:20:51;6.60;99.90
62339;DHT22;48368;53.406;6.214;2023-02-15T19:23:20;6.60;99.90
62339;DHT22;48368;53.406;6.214;2023-02-15T19:25:55;6.70;99.90
62339;DHT22;48368;53.406;6.214;2023-02-15T19:28:30;6.70;99.90
62339;DHT22;48368;53.406;6.214;2023-02-15T19:34:23;6.80;99.90
62339;DHT22;48368;53.406;6.214;2023-02-15T19:36:52;6.80;99.90
62339;DHT22;48368;53.406;6.214;2023-02-15T19:39:50;6.80;99.90
62339;DHT22;48368;53.406;6.214;2023-02-15T20:00:33;6.80;99.90
62339;DHT22;48368;53.406;6.214;2023-02-15T20:03:44;6.80;99.90
62339;DHT22;48368;53.406;6.214;2023-02-15T20:18:37;6.80;99.90
62339;DHT22;48368;53.406;6.214;2023-02-15T20:21:34;6.90;99.90
62339;DHT22;48368;53.406;6.214;2023-02-15T20:24:47;6.90;99.90
62339;DHT22;48368;53.406;6.214;2023-02-15T20:27:49;6.90;99.90
62339;DHT22;48368;53.406;6.214;2023-02-15T21:20:21;6.80;99.90
62339;DHT22;48368;53.406;6.214;2023-02-15T22:05:31;6.00;99.90
62339;DHT22;48368;53.406;6.214;2023-02-15T22:07:57;6.00;99.90
62339;DHT22;48368;53.406;6.214;2023-02-15T22:10:30;6.00;99.90
62339;DHT22;48368;53.406;6.214;2023-02-15T22:12:58;5.90;99.90
62339;DHT22;48368;53.406;6.214;2023-02-15T22:15:26;5.90;99.90
62339;DHT22;48368;53.406;6.214;2023-02-15T22:17:54;5.90;99.90
62339;DHT22;48368;53.406;6.214;2023-02-15T22:20:22;5.90;99.90
62339;DHT22;48368;53.406;6.214;2023-02-15T22:22:48;5.80;99.90
62339;DHT22;48368;53.406;6.214;2023-02-15T22:25:17;5.90;99.90
62339;DHT22;48368;53.406;6.214;2023-02-15T22:27:44;5.90;99.90
62339;DHT22;48368;53.406;6.214;2023-02-15T22:30:26;5.80;99.90
62339;DHT22;48368;53.406;6.214;2023-02-15T22:32:53;5.80;99.90
62339;DHT22;48368;53.406;6.214;2023-02-15T22:35:31;5.80;99.90
62339;DHT22;48368;53.406;6.214;2023-02-15T22:37:58;5.90;99.90
62339;DHT22;48368;53.406;6.214;2023-02-15T22:40:30;5.80;99.90
62339;DHT22;48368;53.406;6.214;2023-02-15T22:42:58;5.90;99.90
62339;DHT22;48368;53.406;6.214;2023-02-15T22:45:24;5.90;99.90
62339;DHT22;48368;53.406;6.214;2023-02-15T22:47:57;5.90;99.90
62339;DHT22;48368;53.406;6.214;2023-02-15T22:50:28;5.90;99.90
62339;DHT22;48368;53.406;6.214;2023-02-15T22:52:54;5.90;99.90
62339;DHT22;48368;53.406;6.214;2023-02-15T22:55:23;5.90;99.90
62339;DHT22;48368;53.406;6.214;2023-02-15T22:57:52;5.80;99.90
62339;DHT22;48368;53.406;6.214;2023-02-15T23:00:24;5.90;99.90
62339;DHT22;48368;53.406;6.214;2023-02-15T23:02:51;5.80;99.90
62339;DHT22;48368;53.406;6.214;2023-02-15T23:05:26;5.90;99.90
62339;DHT22;48368;53.406;6.214;2023-02-15T23:07:52;5.80;99.90
62339;DHT22;48368;53.406;6.214;2023-02-15T23:10:20;5.80;99.90
62339;DHT22;48368;53.406;6.214;2023-02-15T23:12:52;5.80;99.90
62339;DHT22;48368;53.406;6.214;2023-02-15T23:15:37;5.70;99.90
62339;DHT22;48368;53.406;6.214;2023-02-15T23:18:28;5.70;99.90
62339;DHT22;48368;53.406;6.214;2023-02-15T23:20:59;5.60;99.90
62339;DHT22;48368;53.406;6.214;2023-02-15T23:23:37;5.60;99.90
62339;DHT22;48368;53.406;6.214;2023-02-15T23:26:05;5.60;99.90
62339;DHT22;48368;53.406;6.214;2023-02-15T23:28:36;5.50;99.90
62339;DHT22;48368;53.406;6.214;2023-02-15T23:31:15;5.50;99.90
62339;DHT22;48368;53.406;6.214;2023-02-15T23:33:42;5.40;99.90